sim
Sign-in with your pilot id or email,
or register
Callsign
Passwort

Schedule Details

Flight Number: RYR5714 (3)
Departure: Weeze Airport (EDLV) at 14:40
Arrival: Thessaloniki International Airport (LGTS) at 17:25
Route: Ryanair Passenger Schedule. Enter filed route here before submitting Pirep.

Weather Information
Getting current METAR information for EDLV 252150Z 14006KT 090V160 CAVOK 11/11 Q1009
Getting current METAR information for LGTS 252220Z VRB02KT CAVOK 15/12 Q1020 NOSIG

Schedule Frequency

Route Map